Time;durP1;ratioP1;P1;durP2;ratioP2;P2;SDS_P1;SDS_P2;PMS_P1;PMS_P2;Temp;Humidity;BMP_temperature;BMP_pressure;BME280_temperature;BME280_humidity;BME280_pressure;Samples;Min_cycle;Max_cycle;Signal;HPM_P1;HPM_P2
2023/06/24 00:01:15;;;;;;;10.57;9.30;;;17.10;99.90;;;;;;4977267;28;94414;-34
2023/06/24 00:03:46;;;;;;;13.05;10.63;;;17.00;99.90;;;;;;4994202;28;94866;-40
2023/06/24 00:06:18;;;;;;;14.07;11.43;;;17.00;99.90;;;;;;4994667;28;94263;-37
2023/06/24 00:08:47;;;;;;;12.30;9.70;;;17.00;99.90;;;;;;4994833;28;94843;-34
2023/06/24 00:11:15;;;;;;;15.75;10.57;;;17.00;99.90;;;;;;4994659;28;95895;-34
2023/06/24 00:13:42;;;;;;;11.50;9.65;;;16.90;99.90;;;;;;4994658;28;96266;-37
2023/06/24 00:16:08;;;;;;;12.52;10.88;;;16.90;99.90;;;;;;4994903;28;93496;-33
2023/06/24 00:18:35;;;;;;;11.88;10.52;;;16.90;99.90;;;;;;4995150;28;94110;-35
2023/06/24 00:21:02;;;;;;;15.20;11.10;;;16.90;99.90;;;;;;4993285;28;96055;-37
2023/06/24 00:23:30;;;;;;;12.82;11.43;;;16.80;99.90;;;;;;4993868;28;95549;-34
2023/06/24 00:25:56;;;;;;;10.70;9.60;;;16.90;99.90;;;;;;4994275;28;94342;-36
2023/06/24 00:28:22;;;;;;;13.82;11.45;;;16.80;99.90;;;;;;4997958;28;94255;-35
2023/06/24 00:30:49;;;;;;;12.50;11.20;;;16.80;99.90;;;;;;4997346;28;95275;-38
2023/06/24 00:33:16;;;;;;;13.18;11.10;;;16.80;99.90;;;;;;4997511;28;94737;-41
2023/06/24 00:35:42;;;;;;;12.27;10.20;;;16.80;99.90;;;;;;4997650;28;94475;-34
2023/06/24 00:38:09;;;;;;;13.73;11.93;;;16.70;99.90;;;;;;4980178;28;94022;-35
2023/06/24 00:40:35;;;;;;;16.80;10.60;;;16.70;99.90;;;;;;4997292;28;95390;-37
2023/06/24 00:43:01;;;;;;;14.75;12.13;;;16.70;99.90;;;;;;4998171;28;94372;-35
2023/06/24 00:45:30;;;;;;;12.18;10.85;;;16.70;99.90;;;;;;4997182;28;95921;-38
2023/06/24 00:47:55;;;;;;;;;;;16.70;99.90;;;;;;4997509;28;92207;-36
2023/06/24 00:50:21;;;;;;;16.25;11.57;;;16.70;99.90;;;;;;4999045;28;94333;-37
2023/06/24 00:52:48;;;;;;;14.75;13.07;;;16.70;99.90;;;;;;4997238;28;95342;-37
2023/06/24 00:55:15;;;;;;;14.63;12.70;;;16.60;99.90;;;;;;4997247;28;93606;-34
2023/06/24 00:57:45;;;;;;;14.23;12.90;;;16.70;99.90;;;;;;4997673;28;94354;-39
2023/06/24 01:00:17;;;;;;;14.05;11.75;;;16.60;99.90;;;;;;4984150;28;94847;-35
2023/06/24 01:02:43;;;;;;;16.13;13.35;;;16.60;99.90;;;;;;4997390;28;94483;-35
2023/06/24 01:05:12;;;;;;;14.35;12.18;;;16.50;99.90;;;;;;4997949;28;94195;-37
2023/06/24 01:07:38;;;;;;;16.83;12.70;;;16.50;99.90;;;;;;4967581;28;92704;-34
2023/06/24 01:10:08;;;;;;;15.40;13.48;;;16.50;99.90;;;;;;4996034;28;95624;-34
2023/06/24 01:12:35;;;;;;;13.80;12.20;;;16.50;99.90;;;;;;4994493;28;95246;-33
2023/06/24 01:15:02;;;;;;;15.98;11.80;;;16.40;99.90;;;;;;4997772;28;92210;-39
2023/06/24 01:17:35;;;;;;;15.07;11.45;;;16.40;99.90;;;;;;4997239;28;95122;-34
2023/06/24 01:20:13;;;;;;;12.95;10.88;;;16.40;99.90;;;;;;4997432;28;94847;-38
2023/06/24 01:23:16;;;;;;;14.95;11.63;;;16.40;99.90;;;;;;4996941;28;94517;-34
2023/06/24 01:26:20;;;;;;;12.25;10.82;;;16.40;99.90;;;;;;4996921;28;94241;-36
2023/06/24 01:29:14;;;;;;;14.05;12.55;;;16.40;99.90;;;;;;4996811;28;91799;-35
2023/06/24 01:32:02;;;;;;;12.30;10.57;;;16.30;99.90;;;;;;4997441;28;95076;-39
2023/06/24 01:34:48;;;;;;;14.60;11.63;;;16.30;99.90;;;;;;4985484;28;94884;-34
2023/06/24 01:37:25;;;;;;;12.02;9.55;;;16.30;99.90;;;;;;4995881;28;94698;-36
2023/06/24 01:40:05;;;;;;;12.02;10.77;;;16.30;99.90;;;;;;4996513;28;93344;-39
2023/06/24 01:42:31;;;;;;;10.88;9.77;;;16.30;99.90;;;;;;4986135;28;95377;-34
2023/06/24 01:44:58;;;;;;;14.82;10.82;;;16.30;99.90;;;;;;4996371;28;94599;-40
2023/06/24 01:47:27;;;;;;;12.60;10.52;;;16.30;99.90;;;;;;4996486;28;92576;-35
2023/06/24 01:49:55;;;;;;;11.38;10.20;;;16.30;99.90;;;;;;4996762;28;94364;-34
2023/06/24 01:52:23;;;;;;;13.43;11.23;;;16.30;99.90;;;;;;4996433;28;96353;-36
2023/06/24 01:54:51;;;;;;;12.20;11.02;;;16.20;99.90;;;;;;4996991;28;94899;-38
2023/06/24 01:57:17;;;;;;;;;;;16.20;99.90;;;;;;4996893;28;93902;-37
2023/06/24 01:59:46;;;;;;;12.23;10.93;;;16.20;99.90;;;;;;4998476;28;93731;-37
2023/06/24 02:02:13;;;;;;;12.10;10.82;;;16.20;99.90;;;;;;4995447;28;95547;-38
2023/06/24 02:04:39;;;;;;;11.73;10.52;;;16.20;99.90;;;;;;4995377;28;95992;-36
2023/06/24 02:07:07;;;;;;;13.02;11.10;;;16.20;99.90;;;;;;4996186;28;94220;-38
2023/06/24 02:09:33;;;;;;;10.70;9.63;;;16.20;99.90;;;;;;4996508;28;92489;-35
2023/06/24 02:12:02;;;;;;;11.27;10.07;;;16.20;99.90;;;;;;4996811;28;93499;-38
2023/06/24 02:14:30;;;;;;;10.20;9.18;;;16.20;99.90;;;;;;4995108;28;94400;-39
2023/06/24 02:16:58;;;;;;;12.25;11.05;;;16.20;99.90;;;;;;4996768;28;92779;-34
2023/06/24 02:19:31;;;;;;;12.95;10.13;;;16.10;99.90;;;;;;4995584;28;92763;-37
2023/06/24 02:21:59;;;;;;;11.95;9.95;;;16.10;99.90;;;;;;4996647;28;94646;-33
2023/06/24 02:24:26;;;;;;;13.65;11.38;;;16.10;99.90;;;;;;4996255;28;94820;-35
2023/06/24 02:26:53;;;;;;;12.63;10.93;;;16.10;99.90;;;;;;4996104;28;94631;-34
2023/06/24 02:29:21;;;;;;;10.70;8.80;;;16.10;99.90;;;;;;4995820;28;92945;-36
2023/06/24 02:31:47;;;;;;;17.27;10.88;;;16.10;99.90;;;;;;4996725;28;96339;-37
2023/06/24 02:34:12;;;;;;;10.40;9.38;;;16.10;99.90;;;;;;4982453;28;94656;-35
2023/06/24 02:36:39;;;;;;;11.85;9.70;;;16.00;99.90;;;;;;4996591;28;92367;-38
2023/06/24 02:39:04;;;;;;;11.88;8.82;;;16.00;99.90;;;;;;4996401;28;93972;-34
2023/06/24 02:41:30;;;;;;;11.50;8.88;;;16.00;99.90;;;;;;4996453;28;96069;-40
2023/06/24 02:43:55;;;;;;;10.82;9.77;;;16.00;99.90;;;;;;4997253;28;94418;-35
2023/06/24 02:46:22;;;;;;;10.48;9.48;;;16.00;99.90;;;;;;4996264;28;94856;-40
2023/06/24 02:48:49;;;;;;;10.60;9.50;;;16.00;99.90;;;;;;4996303;28;94621;-36
2023/06/24 02:51:15;;;;;;;10.45;9.35;;;16.00;99.90;;;;;;4994949;28;95771;-35
2023/06/24 02:53:42;;;;;;;14.43;10.63;;;16.00;99.90;;;;;;4993718;28;95720;-38
2023/06/24 02:56:09;;;;;;;11.77;10.45;;;15.90;99.90;;;;;;4996199;28;94257;-39
2023/06/24 02:58:38;;;;;;;13.00;10.60;;;16.00;99.90;;;;;;4990984;28;92634;-36
2023/06/24 03:01:06;;;;;;;11.00;9.68;;;15.90;99.90;;;;;;4994348;28;97044;-37
2023/06/24 03:03:32;;;;;;;11.10;9.93;;;15.90;99.90;;;;;;4995866;28;93627;-35
2023/06/24 03:05:59;;;;;;;11.80;10.07;;;15.90;99.90;;;;;;4996169;28;95074;-40
2023/06/24 03:08:26;;;;;;;13.27;10.95;;;15.80;99.90;;;;;;4995921;28;93378;-37
2023/06/24 03:10:56;;;;;;;12.25;10.45;;;15.80;99.90;;;;;;4994746;28;93794;-38
2023/06/24 03:13:22;;;;;;;15.45;10.70;;;15.70;99.90;;;;;;4994532;28;94304;-35
2023/06/24 03:15:47;;;;;;;11.65;9.57;;;15.70;99.90;;;;;;4976344;28;95047;-38
2023/06/24 03:18:13;;;;;;;10.63;9.50;;;15.70;99.90;;;;;;4977594;28;92361;-39
2023/06/24 03:20:39;;;;;;;13.52;10.32;;;15.70;99.90;;;;;;4995838;28;94617;-36
2023/06/24 03:23:08;;;;;;;11.60;10.40;;;15.70;99.90;;;;;;4995751;28;94883;-39
2023/06/24 03:25:34;;;;;;;11.45;9.25;;;15.70;99.90;;;;;;4995105;28;92195;-35
2023/06/24 03:28:00;;;;;;;12.88;10.30;;;15.70;99.90;;;;;;4995624;28;93206;-37
2023/06/24 03:30:27;;;;;;;14.82;10.57;;;15.70;99.90;;;;;;4988469;28;94614;-41
2023/06/24 03:32:52;;;;;;;14.50;10.82;;;15.70;99.90;;;;;;4995794;28;94145;-33
2023/06/24 03:35:18;;;;;;;10.70;9.43;;;15.80;99.90;;;;;;5008305;27;93060;-35
2023/06/24 03:37:44;;;;;;;13.15;10.63;;;15.80;99.90;;;;;;5014915;27;94819;-38
2023/06/24 03:40:10;;;;;;;11.93;10.23;;;15.80;99.90;;;;;;4999539;28;96519;-36
2023/06/24 03:42:36;;;;;;;12.02;10.27;;;15.80;99.90;;;;;;5014584;28;95732;-38
2023/06/24 03:45:05;;;;;;;11.43;10.35;;;15.80;99.90;;;;;;5014001;27;94328;-36
2023/06/24 03:47:31;;;;;;;9.90;8.95;;;15.80;99.90;;;;;;5005074;28;93389;-35
2023/06/24 03:49:57;;;;;;;10.57;9.48;;;15.80;99.90;;;;;;5009643;28;94405;-36
2023/06/24 03:52:22;;;;;;;10.88;9.52;;;15.80;99.90;;;;;;5015035;28;94697;-35
2023/06/24 03:54:48;;;;;;;11.77;9.48;;;15.80;99.90;;;;;;4998973;28;92873;-35
2023/06/24 03:57:14;;;;;;;12.38;10.48;;;15.90;99.90;;;;;;4996496;28;93155;-33
2023/06/24 03:59:39;;;;;;;15.43;8.60;;;15.90;99.90;;;;;;4996007;28;94832;-35
2023/06/24 04:02:08;;;;;;;12.63;11.15;;;15.90;99.90;;;;;;5005369;28;95102;-40
2023/06/24 04:04:35;;;;;;;10.15;9.15;;;16.00;99.90;;;;;;4997158;28;95641;-35
2023/06/24 04:07:01;;;;;;;10.23;8.95;;;16.00;99.90;;;;;;5000190;28;94332;-34
2023/06/24 04:09:26;;;;;;;11.00;9.65;;;16.00;99.90;;;;;;4998242;28;94418;-34
2023/06/24 04:11:52;;;;;;;11.73;9.30;;;16.00;99.90;;;;;;4998914;28;95061;-37
2023/06/24 04:14:18;;;;;;;12.93;10.13;;;16.00;99.90;;;;;;4998288;28;94403;-37
2023/06/24 04:16:43;;;;;;;10.52;9.43;;;16.10;99.90;;;;;;4999130;28;93498;-35
2023/06/24 04:19:09;;;;;;;10.13;8.95;;;16.10;99.90;;;;;;4999103;28;96270;-36
2023/06/24 04:21:35;;;;;;;10.25;9.18;;;16.20;99.90;;;;;;4980945;28;94187;-35
2023/06/24 04:24:00;;;;;;;13.02;9.20;;;16.20;99.90;;;;;;4981844;28;94315;-39
2023/06/24 04:26:26;;;;;;;10.95;8.57;;;16.30;99.90;;;;;;4998596;28;92574;-40
2023/06/24 04:28:51;;;;;;;9.45;7.97;;;16.30;99.90;;;;;;4998744;28;95569;-36
2023/06/24 04:31:17;;;;;;;14.02;8.73;;;16.40;99.90;;;;;;4999034;28;97420;-37
2023/06/24 04:33:44;;;;;;;15.70;9.85;;;16.50;99.90;;;;;;5033760;22;93273;-35
2023/06/24 04:36:10;;;;;;;10.32;8.23;;;16.60;99.90;;;;;;4976488;28;92236;-36
2023/06/24 04:38:36;;;;;;;10.95;9.30;;;16.80;99.90;;;;;;4977832;28;95011;-35
2023/06/24 04:41:01;;;;;;;10.05;8.70;;;17.00;99.90;;;;;;4979096;28;94120;-34
2023/06/24 04:43:30;;;;;;;8.70;7.80;;;17.20;99.90;;;;;;4978147;28;93350;-34
2023/06/24 04:45:56;;;;;;;10.20;8.32;;;17.40;99.90;;;;;;4978588;28;93818;-34
2023/06/24 04:48:27;;;;;;;11.27;9.85;;;17.70;99.90;;;;;;4977975;28;94410;-36
2023/06/24 04:50:54;;;;;;;12.07;9.02;;;17.90;99.90;;;;;;4977476;28;94768;-38
2023/06/24 04:53:20;;;;;;;10.93;9.20;;;18.10;99.90;;;;;;4976909;28;93652;-35
2023/06/24 04:55:46;;;;;;;10.90;8.20;;;18.30;99.90;;;;;;4985248;28;93261;-37
2023/06/24 04:58:12;;;;;;;11.18;8.32;;;18.50;99.90;;;;;;4979309;28;94516;-38
2023/06/24 05:00:37;;;;;;;13.23;10.13;;;18.70;99.90;;;;;;4998848;28;95388;-33
2023/06/24 05:03:03;;;;;;;11.23;9.50;;;18.90;99.90;;;;;;4997044;28;94652;-34
2023/06/24 05:05:29;;;;;;;10.48;9.48;;;19.00;99.90;;;;;;4998621;28;93480;-36
2023/06/24 05:07:55;;;;;;;10.50;9.40;;;19.30;99.90;;;;;;4997666;28;97019;-36
2023/06/24 05:10:20;;;;;;;13.05;9.45;;;19.50;99.90;;;;;;4998005;28;95090;-38
2023/06/24 05:12:46;;;;;;;11.80;9.15;;;19.70;99.90;;;;;;4998525;28;92863;-33
2023/06/24 05:15:12;;;;;;;11.73;9.77;;;19.90;99.90;;;;;;4996195;28;92173;-37
2023/06/24 05:17:37;;;;;;;9.93;8.90;;;20.10;99.90;;;;;;4997566;28;95719;-36
2023/06/24 05:20:03;;;;;;;10.35;8.77;;;20.30;99.90;;;;;;4979937;28;96002;-37
2023/06/24 05:22:29;;;;;;;10.23;8.70;;;20.40;99.90;;;;;;4997732;28;93192;-40
2023/06/24 05:24:54;;;;;;;9.25;8.13;;;20.60;99.90;;;;;;4997868;28;94232;-37
2023/06/24 05:27:20;;;;;;;11.00;8.38;;;20.80;99.90;;;;;;4996961;28;95391;-41
2023/06/24 05:29:46;;;;;;;13.13;9.77;;;21.00;99.90;;;;;;4998377;28;94672;-35
2023/06/24 05:32:12;;;;;;;8.77;7.90;;;21.20;99.90;;;;;;4997661;28;93912;-34
2023/06/24 05:34:37;;;;;;;9.02;8.13;;;21.40;99.90;;;;;;5004912;28;91878;-36
2023/06/24 05:37:03;;;;;;;10.65;8.25;;;21.60;99.90;;;;;;5017344;28;94812;-35
2023/06/24 05:39:31;;;;;;;11.18;7.53;;;21.80;99.90;;;;;;5017832;28;94410;-35
2023/06/24 05:41:57;;;;;;;12.55;10.13;;;21.80;99.90;;;;;;5017367;28;94641;-37
2023/06/24 05:44:23;;;;;;;9.65;7.63;;;21.90;99.90;;;;;;5016878;28;92163;-37
2023/06/24 05:46:49;;;;;;;9.43;7.80;;;22.10;99.90;;;;;;5017182;28;94643;-38
2023/06/24 05:49:14;;;;;;;12.30;9.85;;;22.20;99.90;;;;;;5017378;28;93616;-34
2023/06/24 05:51:40;;;;;;;10.60;8.82;;;22.20;99.90;;;;;;5018031;28;93285;-35
2023/06/24 05:54:07;;;;;;;10.13;8.35;;;22.30;99.90;;;;;;5018750;28;94175;-34
2023/06/24 05:56:33;;;;;;;11.87;8.47;;;22.40;99.90;;;;;;5017279;28;94420;-35
2023/06/24 05:58:59;;;;;;;10.73;9.48;;;22.60;99.90;;;;;;5017332;28;94936;-34
2023/06/24 06:01:25;;;;;;;11.27;9.60;;;22.90;99.90;;;;;;5014569;28;93027;-38
2023/06/24 06:03:50;;;;;;;13.20;9.82;;;22.90;99.90;;;;;;5006873;28;92260;-35
2023/06/24 06:06:16;;;;;;;10.65;8.82;;;23.00;99.90;;;;;;5017413;28;95883;-34
2023/06/24 06:08:41;;;;;;;10.20;8.98;;;23.10;99.90;;;;;;5016489;28;95574;-35
2023/06/24 06:11:07;;;;;;;9.68;8.27;;;23.20;99.90;;;;;;5017425;28;92987;-34
2023/06/24 06:13:33;;;;;;;8.38;7.57;;;23.50;99.90;;;;;;5017711;28;94833;-33
2023/06/24 06:15:59;;;;;;;9.93;8.80;;;23.40;99.90;;;;;;5016624;28;94827;-33
2023/06/24 06:18:24;;;;;;;11.40;10.40;;;23.50;99.90;;;;;;5016764;28;94847;-34
2023/06/24 06:20:50;;;;;;;9.52;8.63;;;23.60;99.90;;;;;;5016521;28;94817;-35
2023/06/24 06:23:16;;;;;;;12.63;9.25;;;23.70;99.90;;;;;;4999194;28;92147;-35
2023/06/24 06:25:42;;;;;;;9.43;8.32;;;24.00;99.90;;;;;;5016873;28;94262;-34
2023/06/24 06:28:08;;;;;;;9.55;8.65;;;24.00;99.90;;;;;;5016298;28;94514;-33
2023/06/24 06:30:34;;;;;;;10.88;8.57;;;24.20;99.90;;;;;;5016834;28;95011;-35
2023/06/24 06:32:59;;;;;;;10.43;9.38;;;24.30;99.90;;;;;;5016474;28;93261;-35
2023/06/24 06:35:25;;;;;;;12.68;8.90;;;24.10;99.90;;;;;;5015831;28;95188;-37
2023/06/24 06:37:54;;;;;;;10.00;8.63;;;24.40;99.90;;;;;;4998489;28;94439;-36
2023/06/24 06:40:23;;;;;;;12.35;9.75;;;24.40;99.90;;;;;;5015781;28;93104;-36
2023/06/24 06:42:49;;;;;;;10.60;9.60;;;24.70;99.90;;;;;;5016126;28;94670;-34
2023/06/24 06:45:15;;;;;;;13.05;9.25;;;24.90;99.90;;;;;;5015508;28;94871;-40
2023/06/24 06:47:41;;;;;;;11.50;9.55;;;24.60;99.90;;;;;;5007698;28;95083;-38
2023/06/24 06:50:07;;;;;;;8.95;8.15;;;24.80;99.90;;;;;;4998490;28;95414;-36
2023/06/24 06:52:33;;;;;;;12.68;8.43;;;25.10;99.90;;;;;;4997699;28;94648;-37
2023/06/24 06:54:59;;;;;;;9.80;8.70;;;25.40;99.90;;;;;;5013363;28;95658;-37
2023/06/24 06:57:25;;;;;;;10.07;8.95;;;25.50;99.90;;;;;;5006092;28;95355;-39
2023/06/24 06:59:51;;;;;;;10.18;8.95;;;25.40;99.90;;;;;;5014692;28;94605;-33
2023/06/24 07:02:19;;;;;;;12.30;9.25;;;25.80;99.90;;;;;;5015695;28;93342;-38
2023/06/24 07:04:47;;;;;;;8.82;7.95;;;25.90;99.90;;;;;;5014802;28;94529;-37
2023/06/24 07:07:13;;;;;;;9.85;7.75;;;26.10;99.90;;;;;;5016070;28;94206;-39
2023/06/24 07:09:38;;;;;;;12.25;9.80;;;26.10;99.90;;;;;;4985083;28;93269;-34
2023/06/24 07:12:05;;;;;;;8.95;8.02;;;25.60;99.90;;;;;;5010073;28;92523;-36
2023/06/24 07:14:31;;;;;;;10.17;9.23;;;25.70;99.90;;;;;;5014368;28;96635;-36
2023/06/24 07:16:57;;;;;;;10.23;8.30;;;25.90;99.90;;;;;;5016406;28;96277;-36
2023/06/24 07:19:22;;;;;;;11.93;8.00;;;26.00;99.90;;;;;;5014759;28;95100;-38
2023/06/24 07:21:48;;;;;;;9.63;8.75;;;25.80;99.80;;;;;;5016209;28;93551;-34
2023/06/24 07:24:14;;;;;;;9.65;7.80;;;25.90;99.90;;;;;;5006672;28;94945;-35
2023/06/24 07:26:42;;;;;;;11.23;7.93;;;26.00;97.50;;;;;;5006411;28;94822;-37
2023/06/24 07:29:08;;;;;;;9.40;8.50;;;26.30;99.90;;;;;;5010890;28;93191;-34
2023/06/24 07:31:34;;;;;;;9.60;8.68;;;26.60;97.40;;;;;;5010345;28;93267;-35
2023/06/24 07:34:01;;;;;;;11.65;8.40;;;26.60;94.40;;;;;;5004296;28;94109;-33
2023/06/24 07:36:26;;;;;;;21.50;7.47;;;26.60;94.80;;;;;;4999527;28;93855;-37
2023/06/24 07:38:52;;;;;;;13.38;7.68;;;26.70;94.50;;;;;;5005372;28;95091;-39
2023/06/24 07:41:18;;;;;;;7.72;6.80;;;27.20;93.00;;;;;;5000242;28;94534;-37
2023/06/24 07:43:43;;;;;;;9.20;8.27;;;27.50;91.70;;;;;;5004067;28;95430;-34
2023/06/24 07:46:09;;;;;;;11.13;8.98;;;27.30;90.50;;;;;;5000681;28;95804;-38
2023/06/24 07:48:35;;;;;;;9.02;7.53;;;27.40;92.10;;;;;;4983781;28;95266;-36
2023/06/24 07:51:00;;;;;;;9.25;8.13;;;27.20;92.30;;;;;;5005963;28;93445;-36
2023/06/24 07:53:26;;;;;;;8.30;7.50;;;27.40;88.10;;;;;;5015102;28;95923;-34
2023/06/24 07:55:52;;;;;;;8.48;6.75;;;27.70;83.30;;;;;;5003374;28;95121;-36
2023/06/24 07:58:19;;;;;;;8.98;8.18;;;28.00;75.80;;;;;;4995925;28;92701;-37
2023/06/24 08:00:45;;;;;;;8.68;7.70;;;27.80;77.40;;;;;;4996231;28;92864;-35
2023/06/24 08:03:12;;;;;;;9.77;8.27;;;27.50;77.10;;;;;;4994584;28;93964;-37
2023/06/24 08:05:39;;;;;;;8.57;7.78;;;27.80;74.20;;;;;;5008299;28;94676;-37
2023/06/24 08:08:05;;;;;;;9.70;7.85;;;27.90;78.30;;;;;;5014359;28;95564;-36
2023/06/24 08:10:31;;;;;;;9.88;8.30;;;28.10;74.00;;;;;;5002980;28;92147;-34
2023/06/24 08:12:56;;;;;;;8.60;7.70;;;28.10;73.10;;;;;;5008902;28;94705;-36
2023/06/24 08:15:22;;;;;;;8.35;6.68;;;28.20;74.10;;;;;;4976961;28;94941;-37
2023/06/24 08:17:54;;;;;;;8.98;7.18;;;28.20;72.60;;;;;;4996236;28;93041;-35
2023/06/24 08:20:21;;;;;;;7.72;7.03;;;28.10;72.90;;;;;;4995290;28;94222;-35
2023/06/24 08:22:47;;;;;;;9.13;7.73;;;27.70;73.70;;;;;;5001075;28;94822;-34
2023/06/24 08:25:13;;;;;;;7.65;6.85;;;27.70;74.10;;;;;;5014619;28;94679;-35
2023/06/24 08:27:39;;;;;;;11.38;6.80;;;27.80;75.40;;;;;;5008764;28;94591;-37
2023/06/24 08:30:06;;;;;;;7.60;5.80;;;27.50;73.40;;;;;;4995126;28;93311;-39
2023/06/24 08:32:32;;;;;;;8.35;5.80;;;27.90;73.20;;;;;;4994426;28;98364;-37
2023/06/24 08:34:58;;;;;;;6.15;5.57;;;28.20;72.60;;;;;;4983607;28;95771;-36
2023/06/24 08:37:23;;;;;;;7.47;6.70;;;28.70;71.30;;;;;;4995096;28;92979;-35
2023/06/24 08:39:49;;;;;;;8.70;6.85;;;28.00;70.20;;;;;;4994664;28;94106;-34
2023/06/24 08:42:14;;;;;;;9.93;7.38;;;28.10;71.50;;;;;;4994863;28;94804;-36
2023/06/24 08:44:40;;;;;;;8.05;7.07;;;28.20;70.10;;;;;;4994862;28;94023;-37
2023/06/24 08:47:06;;;;;;;9.18;6.63;;;28.40;70.20;;;;;;4995145;28;92100;-38
2023/06/24 08:49:34;;;;;;;8.98;7.78;;;28.40;69.60;;;;;;4997788;28;92429;-36
2023/06/24 08:52:07;;;;;;;9.85;7.53;;;28.30;69.80;;;;;;4998411;28;94544;-36
2023/06/24 08:54:36;;;;;;;8.88;7.28;;;28.30;69.20;;;;;;4997101;28;94281;-36
2023/06/24 08:57:06;;;;;;;7.90;6.90;;;28.30;69.40;;;;;;4995991;28;94206;-37
2023/06/24 08:59:37;;;;;;;9.27;8.15;;;28.30;70.60;;;;;;4996456;28;92771;-35
2023/06/24 09:02:03;;;;;;;8.00;7.20;;;28.30;69.70;;;;;;4995247;28;94406;-38
2023/06/24 09:04:29;;;;;;;10.35;7.45;;;28.30;69.90;;;;;;4995729;28;95807;-35
2023/06/24 09:06:54;;;;;;;9.82;8.40;;;28.00;70.70;;;;;;4996542;28;93228;-36
2023/06/24 09:09:21;;;;;;;6.70;6.10;;;28.00;71.10;;;;;;4994523;28;92553;-35
2023/06/24 09:11:58;;;;;;;10.63;7.10;;;27.80;71.80;;;;;;4993994;28;93986;-37
2023/06/24 09:14:25;;;;;;;6.77;5.10;;;28.20;70.40;;;;;;4996024;28;94999;-44
2023/06/24 09:17:00;;;;;;;8.43;7.00;;;28.40;70.90;;;;;;4996471;28;92264;-35
2023/06/24 09:19:32;;;;;;;11.10;8.93;;;28.20;68.40;;;;;;4995458;28;93304;-37
2023/06/24 09:22:05;;;;;;;7.28;6.60;;;28.00;69.00;;;;;;4995480;28;96003;-34
2023/06/24 09:24:35;;;;;;;9.00;6.82;;;28.40;68.10;;;;;;4982724;28;95426;-34
2023/06/24 09:27:01;;;;;;;9.25;6.13;;;28.10;69.30;;;;;;4995428;28;93415;-39
2023/06/24 09:29:31;;;;;;;7.78;6.38;;;28.10;69.70;;;;;;4996134;28;93661;-36
2023/06/24 09:31:59;;;;;;;6.00;5.38;;;28.60;68.40;;;;;;4993489;28;94701;-40
2023/06/24 09:34:26;;;;;;;11.93;6.38;;;28.80;66.80;;;;;;5000753;28;94607;-37
2023/06/24 09:36:57;;;;;;;6.87;6.27;;;29.20;66.70;;;;;;5015233;28;93764;-36
2023/06/24 09:39:29;;;;;;;9.85;7.72;;;29.10;65.70;;;;;;5005386;28;93430;-36
2023/06/24 09:41:55;;;;;;;7.63;6.32;;;29.10;66.40;;;;;;5000448;28;94393;-34
2023/06/24 09:44:21;;;;;;;6.45;5.78;;;29.30;65.80;;;;;;5015273;28;94478;-39
2023/06/24 09:46:47;;;;;;;8.50;7.57;;;29.30;66.50;;;;;;4984299;28;93758;-37
2023/06/24 09:49:13;;;;;;;8.52;6.60;;;29.10;67.30;;;;;;5004283;28;93669;-35
2023/06/24 09:51:42;;;;;;;11.05;6.65;;;29.50;66.00;;;;;;4995115;28;94740;-38
2023/06/24 09:54:09;;;;;;;9.32;7.65;;;28.80;64.40;;;;;;4977759;28;94374;-37
2023/06/24 09:56:44;;;;;;;6.83;6.17;;;29.20;64.00;;;;;;4995660;28;93474;-39
2023/06/24 09:59:12;;;;;;;6.57;5.90;;;29.00;64.60;;;;;;5007300;27;92165;-38
2023/06/24 10:01:41;;;;;;;7.20;6.05;;;28.80;65.70;;;;;;5013418;28;94717;-37
2023/06/24 10:04:07;;;;;;;7.30;6.57;;;29.10;67.10;;;;;;5015412;28;94753;-42
2023/06/24 10:06:33;;;;;;;8.00;6.20;;;29.30;65.50;;;;;;5014765;28;93019;-37
2023/06/24 10:09:00;;;;;;;9.68;8.15;;;29.30;65.20;;;;;;5015071;28;92639;-40
2023/06/24 10:11:26;;;;;;;8.00;7.25;;;28.80;65.90;;;;;;4992404;28;95081;-42
2023/06/24 10:13:52;;;;;;;7.53;5.97;;;28.60;65.00;;;;;;5008820;28;95316;-35
2023/06/24 10:16:18;;;;;;;8.82;6.20;;;28.40;66.00;;;;;;5014240;28;93201;-36
2023/06/24 10:18:45;;;;;;;7.65;6.20;;;28.40;66.90;;;;;;5014636;28;93878;-44
2023/06/24 10:21:11;;;;;;;6.28;5.68;;;28.20;66.20;;;;;;5014776;28;94983;-36
2023/06/24 10:23:56;;;;;;;6.40;5.80;;;28.40;67.00;;;;;;5014237;28;94425;-37
2023/06/24 10:26:28;;;;;;;6.07;5.47;;;28.40;65.20;;;;;;4993703;28;93500;-37
2023/06/24 10:29:06;;;;;;;8.32;6.72;;;28.20;66.50;;;;;;5014892;28;92823;-40
2023/06/24 10:31:43;;;;;;;8.68;6.32;;;28.60;65.00;;;;;;5013736;28;95504;-40
2023/06/24 10:34:27;;;;;;;;;;;28.30;64.80;;;;;;5001425;28;94292;-40
2023/06/24 10:37:07;;;;;;;7.00;5.60;;;28.40;65.50;;;;;;4996343;28;93481;-42
2023/06/24 10:39:57;;;;;;;6.60;5.30;;;28.60;65.70;;;;;;5015066;28;93965;-36
2023/06/24 10:42:46;;;;;;;6.00;4.95;;;28.80;66.20;;;;;;4990767;28;94674;-33
2023/06/24 10:45:12;;;;;;;5.43;4.35;;;28.80;65.00;;;;;;5013334;28;94443;-34
2023/06/24 10:47:39;;;;;;;6.72;5.70;;;28.70;64.80;;;;;;5013927;28;92296;-34
2023/06/24 10:50:06;;;;;;;4.80;4.40;;;28.70;63.60;;;;;;5013327;28;95537;-39
2023/06/24 10:52:36;;;;;;;10.63;5.63;;;28.80;63.50;;;;;;4979994;28;94936;-40
2023/06/24 10:55:03;;;;;;;5.15;4.65;;;28.90;62.70;;;;;;5000887;28;94571;-34
2023/06/24 10:57:29;;;;;;;5.65;5.13;;;28.90;63.10;;;;;;5014291;28;94357;-36
2023/06/24 10:59:56;;;;;;;6.97;4.32;;;28.70;63.20;;;;;;5013894;28;92194;-38
2023/06/24 11:02:26;;;;;;;6.50;4.78;;;28.80;63.10;;;;;;5002015;28;95750;-37
2023/06/24 11:04:53;;;;;;;4.43;4.03;;;27.90;63.20;;;;;;4999863;28;95382;-42
2023/06/24 11:07:21;;;;;;;5.07;3.80;;;28.00;64.80;;;;;;5006552;28;94472;-38
2023/06/24 11:09:58;;;;;;;4.50;4.10;;;28.00;64.30;;;;;;5001022;28;92205;-33
2023/06/24 11:12:26;;;;;;;5.07;4.45;;;27.70;63.60;;;;;;4992461;28;95835;-37
2023/06/24 11:14:55;;;;;;;5.07;4.18;;;27.80;63.90;;;;;;5000770;28;94424;-43
2023/06/24 11:17:20;;;;;;;5.35;4.75;;;27.90;64.60;;;;;;5005126;28;93872;-38
2023/06/24 11:19:46;;;;;;;5.07;3.63;;;27.80;63.10;;;;;;5001805;28;92763;-37
2023/06/24 11:22:12;;;;;;;4.30;3.90;;;28.00;63.40;;;;;;4986061;28;94714;-35
2023/06/24 11:24:39;;;;;;;4.85;4.35;;;28.10;63.10;;;;;;4983730;28;94015;-35
2023/06/24 11:27:05;;;;;;;5.50;4.10;;;28.30;64.30;;;;;;5004797;28;95061;-38
2023/06/24 11:29:33;;;;;;;6.30;4.13;;;28.20;63.10;;;;;;5005206;28;93354;-39
2023/06/24 11:32:00;;;;;;;5.10;3.83;;;28.20;62.90;;;;;;5007272;28;94342;-44
2023/06/24 11:34:26;;;;;;;4.13;3.73;;;27.90;62.80;;;;;;5002769;28;94557;-35
2023/06/24 11:36:52;;;;;;;5.78;3.97;;;27.60;62.80;;;;;;4999819;28;94053;-33
2023/06/24 11:39:25;;;;;;;4.70;4.25;;;27.90;63.50;;;;;;4998274;28;92174;-37
2023/06/24 11:41:52;;;;;;;5.60;4.47;;;27.90;61.30;;;;;;5000563;28;95024;-33
2023/06/24 11:44:23;;;;;;;4.55;4.15;;;27.90;62.60;;;;;;4996754;28;95803;-44
2023/06/24 11:46:48;;;;;;;4.13;3.83;;;28.10;61.80;;;;;;5000001;28;94323;-42
2023/06/24 11:49:14;;;;;;;4.90;4.07;;;28.20;62.10;;;;;;4996999;28;93957;-35
2023/06/24 11:51:50;;;;;;;4.32;3.92;;;28.10;62.00;;;;;;4999982;28;94015;-34
2023/06/24 11:54:20;;;;;;;4.90;4.22;;;28.30;62.40;;;;;;5006251;28;95515;-43
2023/06/24 11:56:53;;;;;;;5.38;4.88;;;28.40;62.20;;;;;;5012820;27;93449;-34
2023/06/24 11:59:25;;;;;;;4.78;3.95;;;28.10;61.30;;;;;;4999907;28;92409;-35
2023/06/24 12:01:59;;;;;;;5.43;4.90;;;28.00;62.50;;;;;;5000358;28;95533;-36
2023/06/24 12:04:31;;;;;;;5.20;4.15;;;28.10;63.10;;;;;;5012170;28;94600;-33
2023/06/24 12:06:58;;;;;;;4.20;3.88;;;28.10;62.50;;;;;;5012963;27;95163;-37
2023/06/24 12:09:24;;;;;;;4.88;4.40;;;28.30;63.00;;;;;;5012623;28;94239;-39
2023/06/24 12:11:50;;;;;;;5.20;4.50;;;27.70;62.10;;;;;;5012764;27;94628;-35
2023/06/24 12:14:16;;;;;;;7.47;4.38;;;27.70;62.90;;;;;;5011642;28;94675;-33
2023/06/24 12:16:41;;;;;;;4.68;4.28;;;27.70;63.10;;;;;;5012939;28;95017;-39
2023/06/24 12:19:08;;;;;;;6.70;5.20;;;27.80;63.00;;;;;;5010848;28;92769;-41
2023/06/24 12:21:34;;;;;;;4.45;4.05;;;27.30;63.20;;;;;;5012382;27;95409;-44
2023/06/24 12:24:00;;;;;;;5.50;4.05;;;27.50;64.50;;;;;;5013278;27;94407;-36
2023/06/24 12:26:26;;;;;;;5.28;4.45;;;27.70;63.80;;;;;;5015607;27;94914;-33
2023/06/24 12:28:55;;;;;;;4.13;3.75;;;27.90;64.10;;;;;;5015293;28;94342;-43
2023/06/24 12:31:21;;;;;;;3.67;3.38;;;27.80;63.10;;;;;;5016191;28;94272;-39
2023/06/24 12:33:47;;;;;;;4.47;3.83;;;28.00;63.40;;;;;;5015213;28;94437;-35
2023/06/24 12:36:12;;;;;;;4.40;4.00;;;28.10;64.10;;;;;;5015788;28;93674;-47
2023/06/24 12:38:38;;;;;;;8.00;4.63;;;28.20;63.40;;;;;;5016326;28;94165;-35
2023/06/24 12:41:04;;;;;;;4.63;4.22;;;28.20;62.50;;;;;;5014698;28;96745;-37
2023/06/24 12:43:29;;;;;;;5.85;3.92;;;28.20;62.90;;;;;;5001961;28;95170;-42